Terminal Aerodrome Forecast
Issued by NWS Cleveland, OH

Home | Current Version | Previous Version | Text Only | Print | Product List | Glossary On
Versions: 1 2 3 4 5 6 7 8 9 10 11 12 13 14 15 16 17 18 19 20 21
000
FTUS41 KCLE 152053 AAB
TAFMFD
TAF AMD
KMFD 152053Z 1521/1618 23012G20KT 6SM -SN SCT012 OVC035
      TEMPO 1521/1522 3SM -SHSN OVC012
     FM152200 25013KT P6SM SCT015 OVC030
     FM160600 25012KT 4SM -SHSN BKN015 OVC025
     FM161000 25012KT P6SM OVC025=

USA.gov is the U.S. government's official web portal to all federal, state and local government web resources and services.